Terminal Aerodrome Forecast
Issued by NWS Denver/Boulder, CO

Home | Current Version | Previous Version | Text Only | Print | Product List | Glossary On
Versions: 1 2 3 4 5 6 7 8 9 10 11 12 13 14 15 16 17 18 19 20 21 22 23 24 25 26 27 28 29 30 31 32 33 34 35 36 37 38 39 40 41 42 43 44 45 46 47 48 49 50
250
FTUS45 KBOU 290809 AAA
TAFDEN
TAF AMD
KDEN 290809Z 2908/3012 16012KT P6SM FEW220
     FM291000 20011KT P6SM FEW220
     FM291300 26008KT P6SM SCT220
     FM291600 33005KT P6SM SCT220
     FM291900 04007KT P6SM FEW120 BKN220
     FM292300 10011KT P6SM SCT120 BKN220
     FM300300 16012KT P6SM SCT120 BKN220
     FM300600 20011KT P6SM SCT120 BKN200=

USA.gov is the U.S. government's official web portal to all federal, state and local government web resources and services.